Terminal Aerodrome Forecast
Issued by NWS

Home | Current Version | Previous Version | Text Only | Print | Product List | Glossary On
Versions: 1 2 3 4 5 6 7 8 9 10 11 12 13 14 15 16 17 18 19 20 21 22 23 24
135
FTAK31 PAFA 161740
TAFAGA
TAF
PAGA 161740Z 1618/1718 VRB04KT P6SM SCT100 BKN200
     FM170000 VRB04KT P6SM SCT035 BKN050 OVC100
     FM170400 VRB04KT 6SM -SHSN BR BKN030 OVC050
     FM171000 28002KT 2SM -SN BR OVC015=

USA.gov is the U.S. government's official web portal to all federal, state and local government web resources and services.